createdAt,value
2022-09-02T00:01:23.841Z,26.50
2022-09-02T00:03:52.863Z,26.40
2022-09-02T00:06:22.772Z,26.40
2022-09-02T00:08:50.127Z,26.40
2022-09-02T00:11:24.371Z,26.40
2022-09-02T00:13:51.763Z,26.40
2022-09-02T00:16:20.169Z,26.40
2022-09-02T00:18:48.353Z,26.40
2022-09-02T00:21:15.868Z,26.30
2022-09-02T00:23:44.608Z,26.30
2022-09-02T00:26:13.310Z,26.40
2022-09-02T00:28:44.306Z,26.40
2022-09-02T00:31:17.011Z,26.30
2022-09-02T00:33:44.452Z,26.30
2022-09-02T00:36:12.732Z,26.30
2022-09-02T00:38:42.577Z,26.30
2022-09-02T00:41:11.672Z,26.30
2022-09-02T00:43:56.015Z,26.30
2022-09-02T00:46:25.645Z,26.30
2022-09-02T00:49:08.542Z,26.30
2022-09-02T00:52:03.638Z,26.30
2022-09-02T00:54:34.816Z,26.30
2022-09-02T00:57:07.232Z,26.20
2022-09-02T00:59:57.003Z,26.20
2022-09-02T01:02:25.410Z,26.20
2022-09-02T01:04:56.694Z,26.20
2022-09-02T01:07:27.181Z,26.20
2022-09-02T01:09:56.025Z,26.20
2022-09-02T01:12:25.210Z,26.20
2022-09-02T01:14:52.165Z,26.20
2022-09-02T01:17:20.353Z,26.10
2022-09-02T01:19:51.663Z,26.10
2022-09-02T01:22:25.115Z,26.10
2022-09-02T01:24:54.506Z,26.10
2022-09-02T01:27:23.488Z,26.10
2022-09-02T01:29:55.903Z,26.00
2022-09-02T01:32:27.344Z,26.00
2022-09-02T01:34:54.702Z,26.00
2022-09-02T01:37:22.436Z,26.00
2022-09-02T01:39:52.316Z,26.00
2022-09-02T01:42:21.185Z,26.00
2022-09-02T01:44:48.731Z,26.00
2022-09-02T01:47:19.879Z,26.00
2022-09-02T01:49:48.240Z,26.00
2022-09-02T01:52:16.260Z,25.90
2022-09-02T01:54:44.546Z,25.90
2022-09-02T01:57:12.972Z,25.90
2022-09-02T01:59:40.147Z,25.90
2022-09-02T02:02:07.800Z,25.90
2022-09-02T02:04:34.966Z,25.90
2022-09-02T02:07:05.256Z,25.90
2022-09-02T02:09:32.421Z,25.90
2022-09-02T02:11:59.561Z,25.90
2022-09-02T02:14:28.368Z,25.90
2022-09-02T02:16:55.928Z,25.90
2022-09-02T02:19:22.996Z,25.90
2022-09-02T02:21:50.045Z,25.90
2022-09-02T02:24:17.255Z,25.90
2022-09-02T02:26:44.585Z,25.90
2022-09-02T02:29:12.041Z,25.90
2022-09-02T02:31:40.886Z,25.90
2022-09-02T02:34:08.590Z,25.90
2022-09-02T02:36:35.652Z,25.90
2022-09-02T02:39:04.039Z,25.90
2022-09-02T02:41:32.359Z,25.90
2022-09-02T02:44:00.058Z,25.80
2022-09-02T02:46:31.043Z,25.80
2022-09-02T02:49:03.494Z,25.80
2022-09-02T02:51:30.571Z,25.80
2022-09-02T02:53:58.977Z,25.80
2022-09-02T02:56:28.498Z,25.80
2022-09-02T02:59:01.381Z,25.80
2022-09-02T03:01:29.402Z,25.80
2022-09-02T03:03:57.232Z,25.80
2022-09-02T03:06:26.590Z,25.80
2022-09-02T03:08:55.132Z,25.80
2022-09-02T03:11:22.674Z,25.80
2022-09-02T03:13:53.830Z,25.80
2022-09-02T03:16:21.673Z,25.80
2022-09-02T03:18:50.360Z,25.80
2022-09-02T03:21:18.608Z,25.80
2022-09-02T03:23:47.059Z,25.80
2022-09-02T03:26:20.150Z,25.70
2022-09-02T03:28:49.422Z,25.70
2022-09-02T03:31:19.954Z,25.70
2022-09-02T03:33:47.231Z,25.70
2022-09-02T03:36:26.326Z,25.70
2022-09-02T03:38:54.589Z,25.70
2022-09-02T03:41:25.810Z,25.70
2022-09-02T03:43:54.770Z,25.70
2022-09-02T03:46:22.171Z,25.70
2022-09-02T03:48:51.921Z,25.70
2022-09-02T03:51:21.641Z,25.60
2022-09-02T03:53:48.998Z,25.60
2022-09-02T03:56:17.198Z,25.60
2022-09-02T03:58:46.401Z,25.60
2022-09-02T04:01:16.404Z,25.60
2022-09-02T04:03:44.110Z,25.60
2022-09-02T04:06:14.499Z,25.60
2022-09-02T04:08:46.639Z,25.50
2022-09-02T04:11:18.171Z,25.50
2022-09-02T04:13:49.052Z,25.50
2022-09-02T04:16:27.510Z,25.50
2022-09-02T04:18:59.290Z,25.50
2022-09-02T04:21:29.147Z,25.50
2022-09-02T04:23:57.228Z,25.50
2022-09-02T04:26:24.683Z,25.40
2022-09-02T04:28:54.910Z,25.40
2022-09-02T04:31:31.498Z,25.40
2022-09-02T04:34:00.202Z,25.40
2022-09-02T04:36:29.030Z,25.40
2022-09-02T04:39:00.315Z,25.40
2022-09-02T04:41:31.944Z,25.40
2022-09-02T04:44:03.271Z,25.40
2022-09-02T04:46:35.291Z,25.30
2022-09-02T04:49:06.609Z,25.30
2022-09-02T04:51:34.349Z,25.30
2022-09-02T04:54:04.869Z,25.30
2022-09-02T04:56:34.803Z,25.30
2022-09-02T04:59:04.506Z,25.30
2022-09-02T05:01:35.541Z,25.20
2022-09-02T05:04:09.785Z,25.20
2022-09-02T05:06:44.547Z,25.20
2022-09-02T05:09:16.808Z,25.20
2022-09-02T05:11:47.258Z,25.20
2022-09-02T05:14:16.287Z,25.10
2022-09-02T05:16:45.680Z,25.10
2022-09-02T05:19:15.687Z,25.10
2022-09-02T05:21:47.559Z,25.10
2022-09-02T05:24:26.419Z,25.10
2022-09-02T05:26:55.381Z,25.10
2022-09-02T05:29:23.921Z,25.10
2022-09-02T05:31:51.759Z,25.20
2022-09-02T05:34:22.461Z,25.20
2022-09-02T05:36:51.846Z,25.20
2022-09-02T05:39:19.245Z,25.20
2022-09-02T05:41:47.722Z,25.20
2022-09-02T05:44:15.849Z,25.10
2022-09-02T05:46:48.710Z,25.20
2022-09-02T05:49:21.463Z,25.20
2022-09-02T05:52:00.747Z,25.20
2022-09-02T05:54:35.869Z,25.20
2022-09-02T05:57:12.862Z,25.20
2022-09-02T05:59:46.044Z,25.10
2022-09-02T06:02:19.131Z,25.20
2022-09-02T06:04:49.214Z,25.20
2022-09-02T06:07:18.921Z,25.20
2022-09-02T06:09:49.230Z,25.20
2022-09-02T06:12:20.441Z,25.20
2022-09-02T06:14:49.657Z,25.20
2022-09-02T06:17:19.349Z,25.20
2022-09-02T06:19:52.800Z,25.20
2022-09-02T06:22:23.138Z,25.20
2022-09-02T06:24:51.131Z,25.20
2022-09-02T06:27:21.757Z,25.20
2022-09-02T06:29:52.120Z,25.20
2022-09-02T06:32:22.084Z,25.20
2022-09-02T06:34:53.343Z,25.20
2022-09-02T06:37:21.799Z,25.20
2022-09-02T06:39:50.939Z,25.20
2022-09-02T06:42:23.926Z,25.20
2022-09-02T06:45:09.508Z,25.20
2022-09-02T06:47:38.209Z,25.20
2022-09-02T06:50:05.681Z,25.20
2022-09-02T06:52:32.985Z,25.30
2022-09-02T06:55:01.166Z,25.30
2022-09-02T06:57:31.505Z,25.30
2022-09-02T07:00:09.743Z,25.40
2022-09-02T07:02:38.432Z,25.40
2022-09-02T07:05:15.364Z,25.40
2022-09-02T07:07:46.001Z,25.40
2022-09-02T07:10:15.576Z,25.50
2022-09-02T07:12:48.040Z,25.50
2022-09-02T07:15:17.310Z,25.50
2022-09-02T07:17:45.015Z,25.50
2022-09-02T07:20:18.566Z,25.50
2022-09-02T07:22:54.756Z,25.60
2022-09-02T07:25:23.020Z,25.60
2022-09-02T07:27:52.188Z,25.60
2022-09-02T07:30:20.379Z,25.60
2022-09-02T07:32:52.019Z,25.70
2022-09-02T07:35:22.468Z,25.70
2022-09-02T07:37:51.028Z,25.70
2022-09-02T07:40:20.154Z,25.70
2022-09-02T07:42:48.321Z,25.70
2022-09-02T07:45:16.223Z,25.80
2022-09-02T07:47:45.378Z,25.70
2022-09-02T07:50:17.195Z,25.70
2022-09-02T07:52:51.012Z,25.80
2022-09-02T07:55:18.659Z,25.80
2022-09-02T07:57:46.415Z,25.80
2022-09-02T08:00:14.998Z,25.80
2022-09-02T08:02:42.609Z,25.80
2022-09-02T08:05:14.031Z,25.80
2022-09-02T08:07:41.176Z,25.80
2022-09-02T08:10:10.721Z,25.80
2022-09-02T08:12:38.042Z,25.80
2022-09-02T08:15:05.612Z,25.80
2022-09-02T08:17:35.549Z,25.80
2022-09-02T08:20:03.261Z,25.80
2022-09-02T08:22:35.160Z,25.80
2022-09-02T08:25:02.907Z,25.80
2022-09-02T08:27:30.281Z,25.80
2022-09-02T08:29:57.283Z,25.90
2022-09-02T08:32:24.491Z,25.90
2022-09-02T08:34:51.655Z,25.90
2022-09-02T08:37:19.195Z,25.90
2022-09-02T08:39:51.336Z,25.90
2022-09-02T08:42:29.039Z,25.90
2022-09-02T08:45:04.424Z,25.90
2022-09-02T08:47:37.268Z,25.90
2022-09-02T08:50:11.760Z,25.90
2022-09-02T08:52:57.952Z,26.00
2022-09-02T08:55:32.476Z,26.00
2022-09-02T08:58:01.946Z,26.00
2022-09-02T09:00:35.832Z,26.00
2022-09-02T09:03:18.998Z,26.10
2022-09-02T09:06:14.782Z,26.10
2022-09-02T09:09:07.477Z,26.10
2022-09-02T09:11:45.995Z,26.10
2022-09-02T09:15:05.479Z,26.10
2022-09-02T09:17:45.693Z,26.10
2022-09-02T09:20:20.788Z,26.10
2022-09-02T09:22:49.852Z,26.10
2022-09-02T09:25:18.128Z,26.20
2022-09-02T09:27:46.151Z,26.20
2022-09-02T09:30:16.376Z,26.10
2022-09-02T09:32:50.063Z,26.10
2022-09-02T09:35:18.775Z,26.10
2022-09-02T09:37:53.345Z,26.10
2022-09-02T09:40:23.189Z,26.10
2022-09-02T09:42:53.473Z,26.10
2022-09-02T09:45:37.389Z,26.10
2022-09-02T09:48:17.116Z,26.10
2022-09-02T09:50:48.324Z,26.20
2022-09-02T09:53:27.062Z,26.20
2022-09-02T09:55:58.413Z,26.30
2022-09-02T09:58:43.694Z,26.30
2022-09-02T10:01:20.718Z,26.30
2022-09-02T10:03:57.910Z,26.40
2022-09-02T10:06:31.013Z,26.50
2022-09-02T10:09:04.096Z,26.50
2022-09-02T10:11:38.416Z,26.50
2022-09-02T10:14:08.626Z,26.60
2022-09-02T10:17:06.421Z,26.60
2022-09-02T10:19:57.924Z,26.60
2022-09-02T10:23:00.522Z,26.60
2022-09-02T10:25:45.875Z,26.60
2022-09-02T10:28:34.521Z,26.60
2022-09-02T10:31:04.682Z,26.60
2022-09-02T10:34:03.868Z,26.60
2022-09-02T10:37:06.448Z,26.70
2022-09-02T10:39:47.966Z,26.70
2022-09-02T10:42:44.350Z,26.70
2022-09-02T10:45:24.879Z,26.70
2022-09-02T10:47:57.965Z,26.70
2022-09-02T10:50:45.617Z,26.80
2022-09-02T10:53:24.336Z,26.80
2022-09-02T10:56:05.263Z,26.80
2022-09-02T10:58:49.240Z,26.70
2022-09-02T11:01:22.964Z,26.70
2022-09-02T11:03:50.175Z,26.70
2022-09-02T11:06:59.093Z,26.70
2022-09-02T11:09:43.577Z,26.70
2022-09-02T11:12:31.947Z,26.80
2022-09-02T11:14:59.148Z,26.80
2022-09-02T11:17:38.277Z,26.80
2022-09-02T11:20:31.008Z,26.80
2022-09-02T11:23:17.886Z,26.80
2022-09-02T11:25:49.802Z,26.90
2022-09-02T11:28:28.992Z,26.90
2022-09-02T11:31:08.135Z,26.90
2022-09-02T11:36:38.753Z,27.00
2022-09-02T11:39:36.484Z,27.10
2022-09-02T11:42:43.365Z,27.10
2022-09-02T11:45:28.162Z,27.10
2022-09-02T11:48:10.849Z,27.00
2022-09-02T11:51:08.807Z,27.00
2022-09-02T11:53:40.205Z,27.00
2022-09-02T11:56:19.756Z,27.00
2022-09-02T11:58:53.021Z,27.00
2022-09-02T12:01:43.827Z,27.10
2022-09-02T12:07:10.001Z,27.10
2022-09-02T12:09:51.867Z,27.20
2022-09-02T12:12:38.331Z,27.20
2022-09-02T12:15:05.396Z,27.30
2022-09-02T12:17:38.110Z,27.40
2022-09-02T12:20:11.851Z,27.40
2022-09-02T12:22:42.092Z,27.40
2022-09-02T12:25:28.509Z,27.50
2022-09-02T12:28:26.663Z,27.50
2022-09-02T12:31:07.721Z,27.50
2022-09-02T12:33:41.133Z,27.60
2022-09-02T12:36:11.061Z,27.60
2022-09-02T12:38:42.913Z,27.60
2022-09-02T12:41:31.592Z,27.70
2022-09-02T12:44:12.415Z,27.70
2022-09-02T12:46:57.997Z,27.80
2022-09-02T12:49:30.965Z,27.80
2022-09-02T12:52:02.510Z,27.90
2022-09-02T12:54:49.168Z,27.80
2022-09-02T12:57:18.343Z,27.90
2022-09-02T12:59:47.564Z,27.90
2022-09-02T13:02:43.889Z,27.90
2022-09-02T13:05:17.911Z,28.00
2022-09-02T13:08:09.167Z,28.00
2022-09-02T13:10:51.283Z,28.00
2022-09-02T13:13:39.503Z,28.10
2022-09-02T13:16:18.379Z,28.00
2022-09-02T13:19:26.327Z,28.10
2022-09-02T13:22:02.350Z,28.10
2022-09-02T13:24:48.159Z,28.20
2022-09-02T13:27:52.518Z,28.20
2022-09-02T13:30:38.111Z,28.30
2022-09-02T13:33:12.504Z,28.40
2022-09-02T13:35:41.657Z,28.50
2022-09-02T13:38:13.025Z,28.60
2022-09-02T13:40:43.931Z,28.70
2022-09-02T13:43:12.949Z,28.80
2022-09-02T13:45:40.386Z,28.80
2022-09-02T13:48:29.199Z,28.90
2022-09-02T13:50:59.242Z,29.00
2022-09-02T13:53:53.572Z,29.10
2022-09-02T13:56:30.893Z,29.10
2022-09-02T13:58:58.073Z,29.00
2022-09-02T14:01:33.158Z,29.00
2022-09-02T14:06:39.808Z,29.00
2022-09-02T14:09:17.877Z,29.10
2022-09-02T14:11:46.330Z,29.10
2022-09-02T14:14:19.820Z,29.20
2022-09-02T14:16:46.861Z,29.30
2022-09-02T14:19:17.931Z,29.30
2022-09-02T14:21:46.821Z,29.40
2022-09-02T14:24:20.023Z,29.50
2022-09-02T14:26:49.833Z,29.50
2022-09-02T14:29:19.555Z,29.60
2022-09-02T14:31:47.410Z,29.60
2022-09-02T14:34:37.487Z,29.70
2022-09-02T14:37:24.456Z,29.80
2022-09-02T14:40:12.639Z,30.00
2022-09-02T14:42:58.139Z,30.20
2022-09-02T14:45:28.136Z,30.30
2022-09-02T14:47:56.764Z,30.40
2022-09-02T14:50:30.848Z,30.50
2022-09-02T14:53:05.642Z,30.60
2022-09-02T14:55:54.721Z,30.70
2022-09-02T14:58:26.883Z,30.90
2022-09-02T15:01:00.568Z,30.90
2022-09-02T15:03:29.949Z,31.00
2022-09-02T15:05:57.096Z,31.10
2022-09-02T15:08:24.552Z,31.30
2022-09-02T15:10:54.246Z,31.70
2022-09-02T15:13:32.520Z,32.30
2022-09-02T15:16:00.647Z,32.70
2022-09-02T15:18:27.811Z,32.90
2022-09-02T15:20:55.111Z,33.20
2022-09-02T15:23:22.192Z,33.80
2022-09-02T15:25:49.237Z,34.40
2022-09-02T15:28:16.300Z,35.00
2022-09-02T15:30:43.351Z,35.60
2022-09-02T15:33:16.954Z,36.00
2022-09-02T15:35:47.500Z,36.20
2022-09-02T15:38:14.736Z,36.10
2022-09-02T15:40:41.815Z,36.10
2022-09-02T15:43:08.929Z,35.90
2022-09-02T15:45:45.720Z,35.50
2022-09-02T15:48:12.791Z,35.20
2022-09-02T15:50:39.977Z,34.60
2022-09-02T15:53:07.137Z,34.00
2022-09-02T15:55:35.164Z,33.70
2022-09-02T15:58:02.301Z,33.20
2022-09-02T16:00:31.999Z,33.00
2022-09-02T16:03:00.394Z,32.60
2022-09-02T16:05:27.476Z,32.40
2022-09-02T16:07:54.962Z,32.20
2022-09-02T16:10:22.506Z,32.20
2022-09-02T16:12:49.568Z,32.30
2022-09-02T16:15:16.655Z,32.50
2022-09-02T16:17:43.815Z,32.60
2022-09-02T16:20:11.314Z,32.60
2022-09-02T16:22:38.829Z,32.50
2022-09-02T16:25:06.480Z,32.30
2022-09-02T16:27:52.189Z,32.10
2022-09-02T16:30:19.810Z,32.00
2022-09-02T16:32:47.706Z,31.90
2022-09-02T16:35:14.832Z,31.70
2022-09-02T16:37:43.602Z,31.50
2022-09-02T16:40:11.291Z,31.30
2022-09-02T16:42:38.535Z,31.20
2022-09-02T16:45:06.600Z,31.00
2022-09-02T16:47:34.297Z,30.80
2022-09-02T16:50:01.283Z,30.70
2022-09-02T16:52:28.331Z,30.50
2022-09-02T16:54:55.312Z,30.40
2022-09-02T16:57:22.416Z,30.30
2022-09-02T16:59:52.343Z,30.20
2022-09-02T17:02:19.412Z,30.10
2022-09-02T17:04:46.495Z,30.00
2022-09-02T17:07:13.480Z,29.90
2022-09-02T17:09:42.212Z,29.80
2022-09-02T17:12:09.308Z,29.80
2022-09-02T17:14:36.322Z,29.70
2022-09-02T17:17:03.475Z,29.60
2022-09-02T17:19:32.668Z,29.60
2022-09-02T17:21:59.963Z,29.50
2022-09-02T17:24:31.573Z,29.30
2022-09-02T17:27:00.390Z,29.30
2022-09-02T17:29:48.880Z,29.20
2022-09-02T17:32:18.245Z,29.10
2022-09-02T17:34:45.392Z,29.00
2022-09-02T17:37:12.921Z,29.00
2022-09-02T17:39:40.073Z,29.00
2022-09-02T17:42:07.282Z,28.90
2022-09-02T17:44:39.575Z,28.80
2022-09-02T17:47:21.871Z,28.80
2022-09-02T17:49:49.686Z,28.70
2022-09-02T17:52:19.105Z,28.70
2022-09-02T17:54:52.426Z,28.60
2022-09-02T17:57:43.154Z,28.60
2022-09-02T18:00:18.715Z,28.50
2022-09-02T18:03:22.316Z,28.50
2022-09-02T18:05:52.631Z,28.50
2022-09-02T18:08:38.753Z,28.40
2022-09-02T18:11:07.763Z,28.40
2022-09-02T18:14:25.175Z,28.40
2022-09-02T18:17:03.710Z,28.30
2022-09-02T18:19:49.616Z,28.30
2022-09-02T18:22:44.431Z,28.30
2022-09-02T18:25:29.327Z,28.30
2022-09-02T18:28:12.437Z,28.20
2022-09-02T18:30:59.079Z,28.20
2022-09-02T18:33:45.148Z,28.20
2022-09-02T18:36:30.754Z,28.20
2022-09-02T18:39:16.567Z,28.10
2022-09-02T18:41:56.907Z,28.10
2022-09-02T18:44:39.882Z,28.10
2022-09-02T18:47:12.795Z,28.10
2022-09-02T18:49:40.016Z,28.10
2022-09-02T18:52:12.144Z,28.10
2022-09-02T18:54:54.572Z,28.00
2022-09-02T18:57:21.887Z,28.00
2022-09-02T19:00:09.516Z,28.00
2022-09-02T19:03:03.660Z,27.90
2022-09-02T19:05:33.152Z,27.90
2022-09-02T19:08:30.032Z,27.90
2022-09-02T19:11:03.950Z,27.90
2022-09-02T19:13:48.327Z,27.90
2022-09-02T19:16:26.736Z,27.90
2022-09-02T19:18:54.366Z,27.90
2022-09-02T19:21:33.188Z,27.80
2022-09-02T19:24:06.524Z,27.80
2022-09-02T19:26:34.100Z,27.80
2022-09-02T19:29:04.872Z,27.80
2022-09-02T19:31:32.169Z,27.70
2022-09-02T19:34:02.084Z,27.70
2022-09-02T19:36:31.577Z,27.70
2022-09-02T19:38:59.998Z,27.70
2022-09-02T19:41:27.578Z,27.70
2022-09-02T19:43:55.139Z,27.60
2022-09-02T19:47:04.223Z,27.60
2022-09-02T19:49:10.493Z,27.60
2022-09-02T19:51:37.787Z,27.60
2022-09-02T19:54:04.838Z,27.50
2022-09-02T19:56:31.872Z,27.50
2022-09-02T19:58:59.119Z,27.50
2022-09-02T20:01:26.314Z,27.50
2022-09-02T20:03:53.487Z,27.50
2022-09-02T20:06:20.614Z,27.40
2022-09-02T20:08:48.077Z,27.40
2022-09-02T20:11:15.227Z,27.40
2022-09-02T20:13:44.989Z,27.40
2022-09-02T20:16:30.665Z,27.40
2022-09-02T20:18:57.921Z,27.40
2022-09-02T20:21:28.221Z,27.40
2022-09-02T20:24:03.318Z,27.40
2022-09-02T20:26:43.840Z,27.30
2022-09-02T20:29:50.038Z,27.30
2022-09-02T20:32:43.003Z,27.30
2022-09-02T20:35:29.324Z,27.30
2022-09-02T20:38:27.214Z,27.30
2022-09-02T20:40:59.090Z,27.20
2022-09-02T20:44:07.004Z,27.20
2022-09-02T20:47:05.751Z,27.20
2022-09-02T20:49:54.125Z,27.20
2022-09-02T20:53:19.486Z,27.20
2022-09-02T20:56:05.375Z,27.10
2022-09-02T20:58:56.167Z,27.10
2022-09-02T21:01:36.285Z,27.10
2022-09-02T21:04:18.905Z,27.00
2022-09-02T21:06:57.753Z,27.10
2022-09-02T21:09:43.180Z,27.00
2022-09-02T21:12:21.418Z,27.00
2022-09-02T21:14:55.912Z,26.90
2022-09-02T21:17:35.771Z,26.90
2022-09-02T21:20:24.572Z,27.00
2022-09-02T21:22:56.979Z,26.90
2022-09-02T21:25:26.926Z,26.90
2022-09-02T21:28:02.754Z,26.90
2022-09-02T21:30:38.596Z,26.90
2022-09-02T21:33:10.390Z,26.90
2022-09-02T21:35:49.884Z,26.90
2022-09-02T21:38:27.980Z,26.90
2022-09-02T21:41:11.017Z,26.90
2022-09-02T21:43:55.741Z,26.80
2022-09-02T21:46:30.097Z,26.80
2022-09-02T21:49:00.254Z,26.80
2022-09-02T21:51:48.502Z,26.80
2022-09-02T21:54:43.740Z,26.80
2022-09-02T21:57:35.899Z,26.80
2022-09-02T22:00:08.573Z,26.80
2022-09-02T22:02:57.943Z,26.80
2022-09-02T22:05:33.818Z,26.80
2022-09-02T22:08:22.529Z,26.80
2022-09-02T22:11:15.811Z,26.80
2022-09-02T22:13:42.908Z,26.80
2022-09-02T22:16:25.565Z,26.80
2022-09-02T22:19:02.255Z,26.70
2022-09-02T22:21:49.155Z,26.70
2022-09-02T22:24:28.199Z,26.80
2022-09-02T22:27:25.596Z,26.70
2022-09-02T22:30:03.168Z,26.70
2022-09-02T22:32:50.103Z,26.70
2022-09-02T22:35:29.018Z,26.70
2022-09-02T22:38:10.708Z,26.70
2022-09-02T22:40:46.162Z,26.70
2022-09-02T22:43:19.210Z,26.70
2022-09-02T22:46:14.854Z,26.70
2022-09-02T22:49:14.289Z,26.70
2022-09-02T22:52:22.350Z,26.70
2022-09-02T22:54:51.559Z,26.70
2022-09-02T22:57:53.318Z,26.70
2022-09-02T23:00:23.077Z,26.70
2022-09-02T23:03:08.176Z,26.60
2022-09-02T23:05:56.194Z,26.60
2022-09-02T23:08:23.562Z,26.50
2022-09-02T23:11:18.180Z,26.40
2022-09-02T23:14:19.236Z,26.30
2022-09-02T23:17:23.941Z,26.20
2022-09-02T23:20:05.138Z,26.10
2022-09-02T23:22:44.122Z,26.10
2022-09-02T23:25:17.084Z,26.00
2022-09-02T23:27:57.848Z,26.00
2022-09-02T23:30:24.810Z,25.90
2022-09-02T23:33:15.130Z,25.90
2022-09-02T23:36:16.367Z,25.90
2022-09-02T23:38:50.142Z,25.80
2022-09-02T23:41:18.475Z,25.80
2022-09-02T23:43:45.752Z,25.80
2022-09-02T23:46:27.789Z,25.80
2022-09-02T23:49:11.973Z,25.70
2022-09-02T23:51:56.120Z,25.70
2022-09-02T23:54:36.710Z,25.70
2022-09-02T23:57:27.277Z,25.70
